createdAt,value
2019-02-23T00:00:03.301Z,83
2019-02-23T00:01:03.515Z,83
2019-02-23T00:02:03.250Z,83
2019-02-23T00:03:02.696Z,83
2019-02-23T00:04:03.651Z,83
2019-02-23T00:05:03.638Z,83
2019-02-23T00:06:02.784Z,83
2019-02-23T00:07:03.202Z,83
2019-02-23T00:08:03.563Z,83
2019-02-23T00:09:02.885Z,83
2019-02-23T00:10:03.436Z,83
2019-02-23T00:11:02.894Z,83
2019-02-23T00:12:04.914Z,83
2019-02-23T00:13:02.996Z,83
2019-02-23T00:14:03.056Z,83
2019-02-23T00:15:03.657Z,83
2019-02-23T00:16:02.679Z,83
2019-02-23T00:17:03.869Z,83
2019-02-23T00:18:03.121Z,83
2019-02-23T00:19:03.244Z,83
2019-02-23T00:20:03.141Z,83
2019-02-23T00:21:03.523Z,83
2019-02-23T00:22:02.898Z,83
2019-02-23T00:23:03.468Z,83
2019-02-23T00:24:03.510Z,83
2019-02-23T00:25:03.215Z,83
2019-02-23T00:26:03.706Z,83
2019-02-23T00:27:03.131Z,83
2019-02-23T00:28:03.485Z,83
2019-02-23T00:29:03.131Z,83
2019-02-23T00:30:02.872Z,83
2019-02-23T00:31:03.416Z,83
2019-02-23T00:32:03.159Z,83
2019-02-23T00:33:03.567Z,83
2019-02-23T00:34:03.062Z,83
2019-02-23T00:35:03.711Z,83
2019-02-23T00:36:02.890Z,83
2019-02-23T00:37:03.332Z,83
2019-02-23T00:38:03.646Z,83
2019-02-23T00:39:03.109Z,83
2019-02-23T00:40:02.791Z,83
2019-02-23T00:41:02.788Z,83
2019-02-23T00:42:03.502Z,83
2019-02-23T00:43:02.869Z,83
2019-02-23T00:44:03.147Z,83
2019-02-23T00:45:03.625Z,83
2019-02-23T00:46:03.159Z,83
2019-02-23T00:47:03.752Z,83
2019-02-23T00:48:03.012Z,83
2019-02-23T00:49:03.398Z,83
2019-02-23T00:50:03.099Z,83
2019-02-23T00:51:03.575Z,83
2019-02-23T00:52:03.105Z,83
2019-02-23T00:53:03.248Z,83
2019-02-23T00:54:02.693Z,83
2019-02-23T00:55:03.553Z,83
2019-02-23T00:56:02.730Z,83
2019-02-23T00:57:03.553Z,83
2019-02-23T00:58:03.642Z,83
2019-02-23T00:59:02.840Z,83
2019-02-23T01:00:03.349Z,83
2019-02-23T01:01:03.000Z,83
2019-02-23T01:02:03.778Z,83
2019-02-23T01:03:03.023Z,83
2019-02-23T01:04:03.471Z,83
2019-02-23T01:05:03.109Z,83
2019-02-23T01:06:03.184Z,83
2019-02-23T01:07:03.515Z,83
2019-02-23T01:08:03.096Z,83
2019-02-23T01:09:02.645Z,83
2019-02-23T01:10:03.305Z,83
2019-02-23T01:11:03.016Z,83
2019-02-23T01:12:03.421Z,83
2019-02-23T01:13:02.947Z,83
2019-02-23T01:14:03.100Z,83
2019-02-23T01:15:03.908Z,83
2019-02-23T01:16:03.171Z,83
2019-02-23T01:17:03.621Z,83
2019-02-23T01:18:02.803Z,83
2019-02-23T01:19:03.271Z,83
2019-02-23T01:20:03.600Z,83
2019-02-23T01:21:03.376Z,83
2019-02-23T01:22:03.530Z,83
2019-02-23T01:23:03.066Z,83
2019-02-23T01:24:03.541Z,83
2019-02-23T01:25:02.643Z,83
2019-02-23T01:26:03.048Z,83
2019-02-23T01:27:03.756Z,83
2019-02-23T01:28:03.086Z,83
2019-02-23T01:29:03.322Z,83
2019-02-23T01:30:03.011Z,83
2019-02-23T01:31:03.137Z,83
2019-02-23T01:32:02.932Z,83
2019-02-23T01:33:02.999Z,83
2019-02-23T01:34:03.260Z,83
2019-02-23T01:35:02.994Z,83
2019-02-23T01:36:03.797Z,83
2019-02-23T01:37:02.951Z,83
2019-02-23T01:38:03.679Z,83
2019-02-23T01:39:02.887Z,83
2019-02-23T01:40:03.744Z,83
2019-02-23T01:41:03.224Z,83
2019-02-23T01:42:03.554Z,83
2019-02-23T01:43:03.019Z,83
2019-02-23T01:44:03.002Z,83
2019-02-23T01:45:03.439Z,83
2019-02-23T01:46:02.919Z,83
2019-02-23T01:47:03.723Z,83
2019-02-23T01:48:02.970Z,83
2019-02-23T01:49:03.638Z,83
2019-02-23T01:50:02.990Z,83
2019-02-23T01:51:03.542Z,83
2019-02-23T01:52:02.838Z,83
2019-02-23T01:53:03.549Z,83
2019-02-23T01:54:02.757Z,83
2019-02-23T01:55:03.562Z,83
2019-02-23T01:56:03.544Z,83
2019-02-23T01:57:03.062Z,83
2019-02-23T01:58:03.493Z,83
2019-02-23T01:59:03.157Z,83
2019-02-23T02:00:03.540Z,83
2019-02-23T02:01:02.910Z,83
2019-02-23T02:02:02.808Z,83
2019-02-23T02:03:02.802Z,83
2019-02-23T02:04:03.529Z,83
2019-02-23T02:05:02.920Z,83
2019-02-23T02:06:03.509Z,83
2019-02-23T02:07:03.396Z,83
2019-02-23T02:08:03.414Z,83
2019-02-23T02:09:03.291Z,83
2019-02-23T02:10:03.725Z,83
2019-02-23T02:11:02.912Z,83
2019-02-23T02:12:03.533Z,83
2019-02-23T02:13:02.787Z,83
2019-02-23T02:14:03.548Z,83
2019-02-23T02:15:02.858Z,83
2019-02-23T02:16:03.039Z,83
2019-02-23T02:17:02.782Z,83
2019-02-23T02:18:03.542Z,83
2019-02-23T02:19:03.783Z,83
2019-02-23T02:20:11.594Z,83
2019-02-23T02:21:03.492Z,83
2019-02-23T02:22:03.680Z,83
2019-02-23T02:23:03.063Z,83
2019-02-23T02:24:02.900Z,83
2019-02-23T02:25:03.230Z,83
2019-02-23T02:26:02.863Z,83
2019-02-23T02:27:03.286Z,83
2019-02-23T02:28:02.898Z,83
2019-02-23T02:29:03.231Z,83
2019-02-23T02:30:02.906Z,83
2019-02-23T02:31:03.399Z,83
2019-02-23T02:32:03.711Z,83
2019-02-23T02:33:03.091Z,83
2019-02-23T02:34:03.490Z,83
2019-02-23T02:35:03.032Z,83
2019-02-23T02:36:03.329Z,83
2019-02-23T02:37:02.918Z,83
2019-02-23T02:38:03.334Z,83
2019-02-23T02:39:02.893Z,83
2019-02-23T02:40:03.942Z,83
2019-02-23T02:41:02.773Z,83
2019-02-23T02:42:03.171Z,83
2019-02-23T02:43:02.829Z,83
2019-02-23T02:44:03.410Z,83
2019-02-23T02:45:03.132Z,83
2019-02-23T02:46:03.427Z,83
2019-02-23T02:47:02.826Z,83
2019-02-23T02:48:03.468Z,83
2019-02-23T02:49:03.050Z,83
2019-02-23T02:50:03.625Z,83
2019-02-23T02:51:03.041Z,83
2019-02-23T02:52:03.510Z,83
2019-02-23T02:53:03.559Z,83
2019-02-23T02:54:03.315Z,83
2019-02-23T02:55:02.540Z,83
2019-02-23T02:56:03.460Z,83
2019-02-23T02:57:02.504Z,83
2019-02-23T02:58:03.663Z,83
2019-02-23T02:59:03.025Z,83
2019-02-23T03:00:03.577Z,83
2019-02-23T03:01:03.702Z,83
2019-02-23T03:02:03.455Z,83
2019-02-23T03:03:03.553Z,83
2019-02-23T03:04:03.449Z,83
2019-02-23T03:05:03.687Z,83
2019-02-23T03:06:03.274Z,83
2019-02-23T03:07:03.530Z,83
2019-02-23T03:08:03.211Z,83
2019-02-23T03:09:03.551Z,83
2019-02-23T03:10:02.710Z,83
2019-02-23T03:11:03.748Z,83
2019-02-23T03:12:02.860Z,83
2019-02-23T03:13:03.591Z,83
2019-02-23T03:14:03.028Z,83
2019-02-23T03:15:03.296Z,83
2019-02-23T03:16:03.134Z,83
2019-02-23T03:17:03.418Z,83
2019-02-23T03:18:02.905Z,83
2019-02-23T03:19:03.438Z,83
2019-02-23T03:20:02.872Z,83
2019-02-23T03:21:03.313Z,83
2019-02-23T03:22:02.737Z,83
2019-02-23T03:23:03.590Z,83
2019-02-23T03:24:03.816Z,83
2019-02-23T03:25:03.424Z,83
2019-02-23T03:26:03.496Z,83
2019-02-23T03:27:03.189Z,83
2019-02-23T03:28:03.685Z,83
2019-02-23T03:29:03.148Z,83
2019-02-23T03:30:03.310Z,83
2019-02-23T03:31:03.406Z,83
2019-02-23T03:32:02.924Z,83
2019-02-23T03:33:03.158Z,83
2019-02-23T03:34:02.962Z,83
2019-02-23T03:35:03.419Z,83
2019-02-23T03:36:03.692Z,83
2019-02-23T03:37:03.384Z,83
2019-02-23T03:38:02.744Z,83
2019-02-23T03:39:03.722Z,83
2019-02-23T03:40:02.843Z,83
2019-02-23T03:41:03.194Z,83
2019-02-23T03:42:02.864Z,83
2019-02-23T03:43:03.441Z,83
2019-02-23T03:44:03.710Z,83
2019-02-23T03:45:03.165Z,83
2019-02-23T03:46:03.732Z,83
2019-02-23T03:47:03.351Z,83
2019-02-23T03:48:02.978Z,83
2019-02-23T03:49:03.367Z,83
2019-02-23T03:50:02.941Z,83
2019-02-23T03:51:02.949Z,83
2019-02-23T03:52:02.735Z,83
2019-02-23T03:53:03.249Z,83
2019-02-23T03:54:02.888Z,83
2019-02-23T03:55:03.511Z,83
2019-02-23T03:56:03.541Z,83
2019-02-23T03:57:03.270Z,83
2019-02-23T03:58:02.851Z,83
2019-02-23T03:59:03.389Z,83
2019-02-23T04:00:02.882Z,83
2019-02-23T04:01:03.360Z,83
2019-02-23T04:02:02.938Z,83
2019-02-23T04:03:03.775Z,83
2019-02-23T04:04:03.574Z,83
2019-02-23T04:05:03.420Z,83
2019-02-23T04:06:03.714Z,83
2019-02-23T04:07:03.184Z,83
2019-02-23T04:08:03.646Z,83
2019-02-23T04:09:03.171Z,83
2019-02-23T04:10:03.294Z,83
2019-02-23T04:11:03.534Z,83
2019-02-23T04:12:03.525Z,83
2019-02-23T04:13:03.302Z,83
2019-02-23T04:14:03.495Z,83
2019-02-23T04:15:03.247Z,83
2019-02-23T04:16:03.514Z,83
2019-02-23T04:17:03.300Z,83
2019-02-23T04:18:03.598Z,83
2019-02-23T04:19:03.124Z,83
2019-02-23T04:20:03.596Z,83
2019-02-23T04:21:02.995Z,83
2019-02-23T04:22:03.153Z,83
2019-02-23T04:23:02.978Z,83
2019-02-23T04:24:03.668Z,83
2019-02-23T04:25:03.418Z,83
2019-02-23T04:26:03.580Z,83
2019-02-23T04:27:03.190Z,83
2019-02-23T04:28:03.402Z,83
2019-02-23T04:29:02.683Z,83
2019-02-23T04:30:03.206Z,83
2019-02-23T04:31:03.699Z,83
2019-02-23T04:32:03.379Z,83
2019-02-23T04:33:03.497Z,83
2019-02-23T04:34:03.296Z,83
2019-02-23T04:35:03.806Z,83
2019-02-23T04:36:03.435Z,83
2019-02-23T04:37:03.576Z,83
2019-02-23T04:38:03.314Z,83
2019-02-23T04:39:03.545Z,83
2019-02-23T04:40:03.045Z,83
2019-02-23T04:41:03.152Z,83
2019-02-23T04:42:02.981Z,83
2019-02-23T04:43:03.231Z,83
2019-02-23T04:44:02.951Z,83
2019-02-23T04:45:03.410Z,83
2019-02-23T04:46:02.855Z,83
2019-02-23T04:47:03.296Z,83
2019-02-23T04:48:03.132Z,83
2019-02-23T04:49:03.486Z,83
2019-02-23T04:50:03.041Z,83
2019-02-23T04:51:14.819Z,83
2019-02-23T04:52:03.035Z,83
2019-02-23T04:53:03.449Z,83
2019-02-23T04:54:02.924Z,83
2019-02-23T04:55:03.424Z,83
2019-02-23T04:56:02.833Z,83
2019-02-23T04:57:03.107Z,83
2019-02-23T04:58:03.597Z,83
2019-02-23T04:59:02.855Z,83
2019-02-23T05:00:03.396Z,83
2019-02-23T05:01:02.911Z,83
2019-02-23T05:02:03.446Z,83
2019-02-23T05:03:03.005Z,83
2019-02-23T05:04:03.267Z,83
2019-02-23T05:05:02.877Z,83
2019-02-23T05:06:03.142Z,83
2019-02-23T05:07:03.561Z,83
2019-02-23T05:08:02.864Z,83
2019-02-23T05:09:03.600Z,83
2019-02-23T05:10:03.061Z,83
2019-02-23T05:11:02.882Z,83
2019-02-23T05:12:03.653Z,83
2019-02-23T05:13:02.815Z,83
2019-02-23T05:14:03.744Z,83
2019-02-23T05:15:03.061Z,83
2019-02-23T05:16:03.670Z,83
2019-02-23T05:17:02.648Z,83
2019-02-23T05:18:03.321Z,83
2019-02-23T05:19:03.704Z,83
2019-02-23T05:20:03.244Z,83
2019-02-23T05:21:03.145Z,83
2019-02-23T05:22:03.052Z,83
2019-02-23T05:23:03.423Z,83
2019-02-23T05:24:02.856Z,83
2019-02-23T05:25:03.444Z,83
2019-02-23T05:26:02.796Z,83
2019-02-23T05:27:03.334Z,83
2019-02-23T05:28:02.774Z,83
2019-02-23T05:29:03.282Z,83
2019-02-23T05:30:03.930Z,83
2019-02-23T05:31:02.770Z,83
2019-02-23T05:32:03.168Z,83
2019-02-23T05:33:02.651Z,83
2019-02-23T05:34:03.074Z,83
2019-02-23T05:35:03.181Z,83
2019-02-23T05:36:03.093Z,83
2019-02-23T05:37:02.825Z,83
2019-02-23T05:38:03.123Z,83
2019-02-23T05:39:03.645Z,83
2019-02-23T05:40:03.313Z,83
2019-02-23T05:41:02.946Z,83
2019-02-23T05:42:02.991Z,83
2019-02-23T05:43:03.447Z,83
2019-02-23T05:44:03.057Z,83
2019-02-23T05:45:03.800Z,83
2019-02-23T05:46:03.112Z,83
2019-02-23T05:47:03.548Z,83
2019-02-23T05:48:02.997Z,83
2019-02-23T05:49:03.304Z,83
2019-02-23T05:50:03.117Z,83
2019-02-23T05:51:03.417Z,83
2019-02-23T05:52:02.985Z,83
2019-02-23T05:53:03.340Z,83
2019-02-23T05:54:02.595Z,83
2019-02-23T05:55:02.942Z,83
2019-02-23T05:56:03.793Z,83
2019-02-23T05:57:03.821Z,83
2019-02-23T05:58:03.277Z,83
2019-02-23T05:59:03.660Z,83
2019-02-23T06:00:03.255Z,83
2019-02-23T06:01:03.675Z,83
2019-02-23T06:02:03.622Z,83
2019-02-23T06:03:03.688Z,83
2019-02-23T06:04:03.086Z,83
2019-02-23T06:05:03.648Z,83
2019-02-23T06:06:03.251Z,83
2019-02-23T06:07:03.818Z,83
2019-02-23T06:08:03.093Z,83
2019-02-23T06:09:03.116Z,83
2019-02-23T06:10:02.867Z,83
2019-02-23T06:11:03.340Z,83
2019-02-23T06:12:02.882Z,83
2019-02-23T06:13:03.208Z,83
2019-02-23T06:14:03.363Z,83
2019-02-23T06:15:03.265Z,83
2019-02-23T06:16:02.993Z,83
2019-02-23T06:17:04.383Z,83
2019-02-23T06:18:03.326Z,83
2019-02-23T06:19:03.648Z,83
2019-02-23T06:20:03.199Z,83
2019-02-23T06:21:03.491Z,83
2019-02-23T06:22:02.758Z,83
2019-02-23T06:23:03.741Z,83
2019-02-23T06:24:03.095Z,83
2019-02-23T06:25:03.604Z,84
2019-02-23T06:26:03.110Z,84
2019-02-23T06:27:03.409Z,84
2019-02-23T06:28:02.836Z,84
2019-02-23T06:29:03.628Z,84
2019-02-23T06:30:03.261Z,84
2019-02-23T06:31:03.674Z,84
2019-02-23T06:32:02.643Z,84
2019-02-23T06:33:03.183Z,84
2019-02-23T06:34:16.604Z,84
2019-02-23T06:35:03.359Z,83
2019-02-23T06:36:03.671Z,84
2019-02-23T06:37:02.851Z,84
2019-02-23T06:38:03.727Z,84
2019-02-23T06:39:02.663Z,84
2019-02-23T06:40:03.238Z,83
2019-02-23T06:41:03.699Z,84
2019-02-23T06:42:03.357Z,83
2019-02-23T06:43:03.661Z,83
2019-02-23T06:44:03.095Z,84
2019-02-23T06:45:03.364Z,84
2019-02-23T06:46:02.903Z,83
2019-02-23T06:47:03.455Z,83
2019-02-23T06:48:02.881Z,84
2019-02-23T06:49:03.537Z,84
2019-02-23T06:50:03.263Z,83
2019-02-23T06:51:03.331Z,83
2019-02-23T06:52:04.852Z,83
2019-02-23T06:53:03.082Z,83
2019-02-23T06:54:03.483Z,83
2019-02-23T06:55:03.051Z,83
2019-02-23T06:56:03.820Z,83
2019-02-23T06:57:02.862Z,83
2019-02-23T06:58:03.303Z,83
2019-02-23T06:59:02.828Z,82
2019-02-23T07:00:02.650Z,82
2019-02-23T07:01:02.959Z,82
2019-02-23T07:02:03.690Z,82
2019-02-23T07:03:03.162Z,82
2019-02-23T07:04:04.068Z,83
2019-02-23T07:05:03.113Z,83
2019-02-23T07:06:03.539Z,82
2019-02-23T07:07:03.234Z,82
2019-02-23T07:08:03.603Z,82
2019-02-23T07:09:03.092Z,82
2019-02-23T07:10:03.580Z,82
2019-02-23T07:11:02.972Z,82
2019-02-23T07:12:03.141Z,81
2019-02-23T07:13:03.701Z,81
2019-02-23T07:14:03.003Z,81
2019-02-23T07:15:02.789Z,81
2019-02-23T07:16:02.905Z,81
2019-02-23T07:17:05.358Z,81
2019-02-23T07:18:02.616Z,81
2019-02-23T07:19:03.008Z,81
2019-02-23T07:20:03.704Z,81
2019-02-23T07:21:02.935Z,81
2019-02-23T07:22:02.756Z,81
2019-02-23T07:23:03.081Z,81
2019-02-23T07:24:03.765Z,80
2019-02-23T07:25:02.982Z,80
2019-02-23T07:26:02.649Z,80
2019-02-23T07:27:03.115Z,80
2019-02-23T07:28:03.756Z,80
2019-02-23T07:29:03.211Z,80
2019-02-23T07:30:03.832Z,80
2019-02-23T07:31:02.893Z,78
2019-02-23T07:32:02.855Z,78
2019-02-23T07:33:03.206Z,77
2019-02-23T07:34:02.918Z,77
2019-02-23T07:35:03.470Z,77
2019-02-23T07:36:02.697Z,77
2019-02-23T07:37:03.186Z,77
2019-02-23T07:38:03.098Z,77
2019-02-23T07:39:03.143Z,77
2019-02-23T07:40:03.343Z,77
2019-02-23T07:41:03.173Z,77
2019-02-23T07:42:03.619Z,77
2019-02-23T07:43:03.264Z,77
2019-02-23T07:44:03.633Z,77
2019-02-23T07:45:03.002Z,77
2019-02-23T07:46:03.493Z,77
2019-02-23T07:47:03.030Z,76
2019-02-23T07:48:03.351Z,76
2019-02-23T07:49:03.542Z,76
2019-02-23T07:50:03.025Z,74
2019-02-23T07:51:02.940Z,73
2019-02-23T07:52:02.954Z,73
2019-02-23T07:53:02.708Z,74
2019-02-23T07:54:03.227Z,74
2019-02-23T07:55:03.502Z,75
2019-02-23T07:56:03.183Z,75
2019-02-23T07:57:02.908Z,76
2019-02-23T07:58:02.917Z,76
2019-02-23T07:59:03.599Z,76
2019-02-23T08:00:03.088Z,76
2019-02-23T08:01:03.724Z,76
2019-02-23T08:02:02.937Z,76
2019-02-23T08:03:03.374Z,76
2019-02-23T08:04:03.496Z,76
2019-02-23T08:05:03.609Z,76
2019-02-23T08:06:03.691Z,76
2019-02-23T08:07:03.585Z,76
2019-02-23T08:08:02.623Z,77
2019-02-23T08:09:03.337Z,77
2019-02-23T08:10:03.852Z,76
2019-02-23T08:11:03.266Z,76
2019-02-23T08:12:03.009Z,76
2019-02-23T08:13:03.158Z,76
2019-02-23T08:14:03.707Z,76
2019-02-23T08:15:03.468Z,76
2019-02-23T08:16:02.794Z,76
2019-02-23T08:17:03.251Z,76
2019-02-23T08:18:02.742Z,76
2019-02-23T08:19:03.166Z,76
2019-02-23T08:20:02.624Z,76
2019-02-23T08:21:03.162Z,76
2019-02-23T08:22:02.748Z,76
2019-02-23T08:23:03.119Z,76
2019-02-23T08:24:03.688Z,76
2019-02-23T08:25:03.207Z,75
2019-02-23T08:26:03.739Z,75
2019-02-23T08:27:02.977Z,75
2019-02-23T08:28:03.415Z,75
2019-02-23T08:29:02.709Z,74
2019-02-23T08:30:03.580Z,73
2019-02-23T08:31:02.798Z,72
2019-02-23T08:32:03.128Z,71
2019-02-23T08:33:03.497Z,71
2019-02-23T08:34:03.078Z,70
2019-02-23T08:35:03.754Z,69
2019-02-23T08:36:03.309Z,69
2019-02-23T08:37:02.689Z,69
2019-02-23T08:38:02.968Z,67
2019-02-23T08:39:03.524Z,66
2019-02-23T08:40:02.834Z,66
2019-02-23T08:41:03.502Z,65
2019-02-23T08:42:03.067Z,65
2019-02-23T08:43:03.312Z,66
2019-02-23T08:44:02.931Z,66
2019-02-23T08:45:03.335Z,66
2019-02-23T08:46:02.958Z,66
2019-02-23T08:47:03.679Z,66
2019-02-23T08:48:03.021Z,66
2019-02-23T08:49:03.660Z,66
2019-02-23T08:50:03.404Z,65
2019-02-23T08:51:03.685Z,64
2019-02-23T08:52:03.205Z,64
2019-02-23T08:53:03.529Z,64
2019-02-23T08:54:02.973Z,64
2019-02-23T08:55:03.213Z,62
2019-02-23T08:56:02.739Z,62
2019-02-23T08:57:03.413Z,62
2019-02-23T08:58:03.622Z,62
2019-02-23T08:59:03.071Z,62
2019-02-23T09:00:03.621Z,62
2019-02-23T09:01:02.733Z,61
2019-02-23T09:02:03.402Z,61
2019-02-23T09:03:03.501Z,59
2019-02-23T09:04:03.347Z,59
2019-02-23T09:05:02.933Z,58
2019-02-23T09:06:03.127Z,58
2019-02-23T09:07:03.465Z,57
2019-02-23T09:08:03.414Z,58
2019-02-23T09:09:02.900Z,58
2019-02-23T09:10:03.213Z,58
2019-02-23T09:11:03.545Z,59
2019-02-23T09:12:02.862Z,59
2019-02-23T09:13:03.477Z,59
2019-02-23T09:14:02.660Z,60
2019-02-23T09:15:03.461Z,60
2019-02-23T09:16:03.564Z,60
2019-02-23T09:17:03.634Z,61
2019-02-23T09:18:03.711Z,60
2019-02-23T09:19:03.309Z,60
2019-02-23T09:20:03.311Z,60
2019-02-23T09:21:02.980Z,59
2019-02-23T09:22:03.342Z,60
2019-02-23T09:23:02.704Z,61
2019-02-23T09:24:03.150Z,61
2019-02-23T09:25:03.795Z,61
2019-02-23T09:26:02.975Z,61
2019-02-23T09:27:03.319Z,61
2019-02-23T09:28:03.050Z,61
2019-02-23T09:29:03.779Z,61
2019-02-23T09:30:03.656Z,59
2019-02-23T09:31:03.753Z,59
2019-02-23T09:32:03.594Z,59
2019-02-23T09:33:03.400Z,59
2019-02-23T09:34:03.787Z,60
2019-02-23T09:35:03.445Z,59
2019-02-23T09:36:03.467Z,60
2019-02-23T09:37:03.144Z,60
2019-02-23T09:38:03.520Z,60
2019-02-23T09:39:03.574Z,59
2019-02-23T09:40:03.588Z,58
2019-02-23T09:41:02.874Z,58
2019-02-23T09:42:07.889Z,58
2019-02-23T09:43:03.323Z,59
2019-02-23T09:44:02.675Z,59
2019-02-23T09:45:02.960Z,59
2019-02-23T09:46:03.618Z,59
2019-02-23T09:47:03.691Z,59
2019-02-23T09:48:03.454Z,59
2019-02-23T09:49:02.849Z,59
2019-02-23T09:50:03.412Z,59
2019-02-23T09:51:03.515Z,59
2019-02-23T09:52:03.476Z,59
2019-02-23T09:53:11.612Z,59
2019-02-23T09:54:02.976Z,59
2019-02-23T09:55:03.450Z,59
2019-02-23T09:56:02.733Z,58
2019-02-23T09:57:03.439Z,58
2019-02-23T09:58:02.948Z,58
2019-02-23T09:59:03.310Z,57
2019-02-23T10:00:03.045Z,57
2019-02-23T10:01:03.572Z,57
2019-02-23T10:02:02.943Z,57
2019-02-23T10:03:03.602Z,56
2019-02-23T10:04:04.048Z,56
2019-02-23T10:05:03.329Z,56
2019-02-23T10:06:03.415Z,56
2019-02-23T10:07:03.237Z,54
2019-02-23T10:08:03.218Z,54
2019-02-23T10:09:02.735Z,55
2019-02-23T10:10:03.209Z,55
2019-02-23T10:11:02.769Z,56
2019-02-23T10:12:03.433Z,55
2019-02-23T10:13:03.931Z,55
2019-02-23T10:14:03.058Z,55
2019-02-23T10:15:03.723Z,55
2019-02-23T10:16:03.161Z,55
2019-02-23T10:17:03.628Z,56
2019-02-23T10:18:03.165Z,55
2019-02-23T10:19:03.552Z,55
2019-02-23T10:20:03.205Z,55
2019-02-23T10:21:03.765Z,55
2019-02-23T10:22:02.985Z,54
2019-02-23T10:23:02.654Z,54
2019-02-23T10:24:03.328Z,54
2019-02-23T10:25:03.827Z,54
2019-02-23T10:26:03.721Z,54
2019-02-23T10:27:02.822Z,54
2019-02-23T10:28:03.668Z,54
2019-02-23T10:29:03.089Z,54
2019-02-23T10:30:03.660Z,54
2019-02-23T10:31:03.766Z,54
2019-02-23T10:32:03.756Z,54
2019-02-23T10:33:03.027Z,54
2019-02-23T10:34:03.755Z,54
2019-02-23T10:35:02.921Z,54
2019-02-23T10:36:03.543Z,54
2019-02-23T10:37:02.978Z,54
2019-02-23T10:38:03.876Z,54
2019-02-23T10:39:03.272Z,53
2019-02-23T10:40:03.922Z,53
2019-02-23T10:41:03.351Z,53
2019-02-23T10:42:02.850Z,53
2019-02-23T10:43:03.544Z,52
2019-02-23T10:44:03.068Z,52
2019-02-23T10:45:03.203Z,52
2019-02-23T10:46:03.642Z,52
2019-02-23T10:47:02.788Z,52
2019-02-23T10:48:03.584Z,52
2019-02-23T10:49:02.835Z,53
2019-02-23T10:50:03.458Z,53
2019-02-23T10:51:02.848Z,52
2019-02-23T10:52:03.360Z,51
2019-02-23T10:53:02.879Z,51
2019-02-23T10:54:03.274Z,50
2019-02-23T10:55:03.558Z,50
2019-02-23T10:56:03.232Z,49
2019-02-23T10:57:03.792Z,49
2019-02-23T10:58:03.059Z,49
2019-02-23T10:59:03.544Z,49
2019-02-23T11:00:04.040Z,50
2019-02-23T11:01:02.906Z,49
2019-02-23T11:02:03.573Z,48
2019-02-23T11:03:03.324Z,48
2019-02-23T11:04:02.762Z,42
2019-02-23T11:05:03.043Z,43
2019-02-23T11:06:03.330Z,38
2019-02-23T11:07:03.843Z,37
2019-02-23T11:08:03.461Z,37
2019-02-23T11:09:03.021Z,38
2019-02-23T11:10:03.202Z,39
2019-02-23T11:11:03.787Z,40
2019-02-23T11:12:03.747Z,38
2019-02-23T11:13:03.596Z,35
2019-02-23T11:14:03.837Z,35
2019-02-23T11:15:02.889Z,35
2019-02-23T11:16:03.673Z,38
2019-02-23T11:17:03.213Z,38
2019-02-23T11:18:03.767Z,39
2019-02-23T11:19:03.267Z,40
2019-02-23T11:20:03.707Z,40
2019-02-23T11:21:03.009Z,38
2019-02-23T11:22:03.562Z,37
2019-02-23T11:23:03.101Z,36
2019-02-23T11:24:03.555Z,37
2019-02-23T11:25:03.053Z,36
2019-02-23T11:26:03.251Z,37
2019-02-23T11:27:02.843Z,36
2019-02-23T11:28:03.457Z,37
2019-02-23T11:29:02.937Z,37
2019-02-23T11:30:03.731Z,38
2019-02-23T11:31:02.897Z,39
2019-02-23T11:32:03.449Z,39
2019-02-23T11:33:03.625Z,39
2019-02-23T11:34:03.292Z,39
2019-02-23T11:35:04.007Z,40
2019-02-23T11:36:03.493Z,40
2019-02-23T11:37:02.821Z,40
2019-02-23T11:38:03.343Z,40
2019-02-23T11:39:03.767Z,40
2019-02-23T11:40:03.197Z,40
2019-02-23T11:41:02.677Z,40
2019-02-23T11:42:03.234Z,39
2019-02-23T11:43:03.061Z,37
2019-02-23T11:44:02.981Z,38
2019-02-23T11:45:03.717Z,38
2019-02-23T11:46:03.162Z,39
2019-02-23T11:47:03.632Z,39
2019-02-23T11:48:02.992Z,38
2019-02-23T11:49:03.656Z,38
2019-02-23T11:50:03.859Z,36
2019-02-23T11:51:03.138Z,36
2019-02-23T11:52:03.511Z,36
2019-02-23T11:53:03.215Z,36
2019-02-23T11:54:03.758Z,37
2019-02-23T11:55:03.114Z,36
2019-02-23T11:56:03.509Z,36
2019-02-23T11:57:02.945Z,37
2019-02-23T11:58:03.403Z,37
2019-02-23T11:59:03.909Z,37
2019-02-23T12:00:03.532Z,37
2019-02-23T12:01:03.831Z,37
2019-02-23T12:02:03.341Z,33
2019-02-23T12:03:03.543Z,33
2019-02-23T12:04:02.999Z,36
2019-02-23T12:05:03.572Z,35
2019-02-23T12:06:02.845Z,36
2019-02-23T12:07:03.503Z,36
2019-02-23T12:08:03.395Z,36
2019-02-23T12:09:03.549Z,36
2019-02-23T12:10:03.163Z,37
2019-02-23T12:11:03.420Z,37
2019-02-23T12:12:02.887Z,38
2019-02-23T12:13:03.787Z,38
2019-02-23T12:14:03.085Z,38
2019-02-23T12:15:03.377Z,38
2019-02-23T12:16:03.861Z,39
2019-02-23T12:17:03.177Z,36
2019-02-23T12:18:03.912Z,36
2019-02-23T12:19:03.225Z,36
2019-02-23T12:20:03.882Z,37
2019-02-23T12:21:03.196Z,37
2019-02-23T12:22:12.939Z,38
2019-02-23T12:23:02.776Z,37
2019-02-23T12:24:06.677Z,35
2019-02-23T12:25:03.634Z,36
2019-02-23T12:26:02.993Z,36
2019-02-23T12:27:03.760Z,35
2019-02-23T12:28:03.611Z,35
2019-02-23T12:29:03.615Z,33
2019-02-23T12:30:03.289Z,35
2019-02-23T12:31:03.599Z,33
2019-02-23T12:32:03.472Z,34
2019-02-23T12:33:02.875Z,35
2019-02-23T12:34:03.314Z,35
2019-02-23T12:35:03.665Z,35
2019-02-23T12:36:03.315Z,36
2019-02-23T12:37:03.799Z,36
2019-02-23T12:38:02.918Z,36
2019-02-23T12:39:03.822Z,35
2019-02-23T12:40:03.181Z,35
2019-02-23T12:41:02.811Z,35
2019-02-23T12:42:03.104Z,36
2019-02-23T12:43:03.303Z,36
2019-02-23T12:44:02.995Z,37
2019-02-23T12:45:03.871Z,37
2019-02-23T12:46:02.855Z,38
2019-02-23T12:47:03.595Z,38
2019-02-23T12:48:03.269Z,38
2019-02-23T12:49:03.025Z,36
2019-02-23T12:50:03.736Z,36
2019-02-23T12:51:03.392Z,36
2019-02-23T12:52:02.932Z,36
2019-02-23T12:53:03.664Z,36
2019-02-23T12:54:02.794Z,36
2019-02-23T12:55:03.238Z,36
2019-02-23T12:56:03.748Z,35
2019-02-23T12:57:02.916Z,36
2019-02-23T12:58:03.651Z,36
2019-02-23T12:59:02.945Z,37
2019-02-23T13:00:03.666Z,36
2019-02-23T13:01:03.202Z,33
2019-02-23T13:02:03.526Z,31
2019-02-23T13:03:03.053Z,33
2019-02-23T13:04:03.186Z,35
2019-02-23T13:05:04.007Z,35
2019-02-23T13:06:02.938Z,36
2019-02-23T13:07:03.565Z,35
2019-02-23T13:08:02.771Z,36
2019-02-23T13:09:03.266Z,36
2019-02-23T13:10:03.767Z,36
2019-02-23T13:11:02.772Z,36
2019-02-23T13:12:02.940Z,36
2019-02-23T13:13:03.118Z,36
2019-02-23T13:14:03.626Z,36
2019-02-23T13:15:03.232Z,36
2019-02-23T13:16:03.502Z,33
2019-02-23T13:17:02.930Z,32
2019-02-23T13:18:03.339Z,33
2019-02-23T13:19:03.139Z,32
2019-02-23T13:20:03.616Z,32
2019-02-23T13:21:03.883Z,33
2019-02-23T13:22:03.295Z,35
2019-02-23T13:23:02.785Z,34
2019-02-23T13:24:03.430Z,35
2019-02-23T13:25:02.939Z,35
2019-02-23T13:26:03.435Z,33
2019-02-23T13:27:02.969Z,34
2019-02-23T13:28:03.179Z,34
2019-02-23T13:29:03.096Z,31
2019-02-23T13:30:03.524Z,30
2019-02-23T13:31:02.883Z,30
2019-02-23T13:32:03.322Z,30
2019-02-23T13:33:02.580Z,30
2019-02-23T13:34:03.078Z,29
2019-02-23T13:35:03.344Z,28
2019-02-23T13:36:03.550Z,30
2019-02-23T13:37:03.261Z,30
2019-02-23T13:38:03.217Z,29
2019-02-23T13:39:03.903Z,30
2019-02-23T13:40:03.174Z,25
2019-02-23T13:41:03.519Z,26
2019-02-23T13:42:05.945Z,27
2019-02-23T13:43:03.678Z,27
2019-02-23T13:44:02.793Z,27
2019-02-23T13:45:03.469Z,26
2019-02-23T13:46:03.053Z,27
2019-02-23T13:47:03.310Z,25
2019-02-23T13:48:03.043Z,27
2019-02-23T13:49:03.373Z,28
2019-02-23T13:50:03.362Z,28
2019-02-23T13:51:03.573Z,29
2019-02-23T13:52:03.774Z,28
2019-02-23T13:53:03.454Z,28
2019-02-23T13:54:03.141Z,30
2019-02-23T13:55:03.658Z,28
2019-02-23T13:56:03.132Z,27
2019-02-23T13:57:03.346Z,27
2019-02-23T13:58:02.941Z,26
2019-02-23T13:59:03.292Z,27
2019-02-23T14:00:03.350Z,26
2019-02-23T14:01:03.519Z,27
2019-02-23T14:02:03.334Z,27
2019-02-23T14:03:03.591Z,27
2019-02-23T14:04:03.079Z,28
2019-02-23T14:05:03.588Z,28
2019-02-23T14:06:03.048Z,28
2019-02-23T14:07:03.145Z,28
2019-02-23T14:08:02.996Z,29
2019-02-23T14:09:03.154Z,29
2019-02-23T14:10:03.726Z,29
2019-02-23T14:11:03.139Z,28
2019-02-23T14:12:03.654Z,29
2019-02-23T14:13:04.582Z,28
2019-02-23T14:14:03.730Z,29
2019-02-23T14:15:03.882Z,27